Terminal Aerodrome Forecast
Issued by NWS

Home | Current Version | Previous Version | Text Only | Print | Product List | Glossary On
Versions: 1 2 3 4 5 6 7 8 9 10 11 12 13 14 15 16 17 18 19 20 21 22 23 24 25
300
FTUS41 KGYX 260534
TAFAUG
TAF
KAUG 260534Z 2606/2706 05010KT 2SM RADZ OVC008
     FM260700 05012KT 2SM RA VCTS OVC004CB
     FM260900 04010KT 3SM RADZ OVC008
     FM261200 04010KT 4SM -SHRA OVC008
     FM261500 02010KT P6SM OVC012
     FM261800 01012G20KT 4SM -RA OVC015 PROB30 2618/2624 4SM -SHRA
      OVC012=

USA.gov is the U.S. government's official web portal to all federal, state and local government web resources and services.